Big Sugar Creek (Missouri), Powell (07188653)

StateMissouriCurrentGood (308 cfs)
RiverBig Sugar CreekFlood - The river is flooding. Obstacles can be treacherous or deadly. The river should be avoided at this stage for casual trips and definitely for the inexperienced. Trips should be attempted only with protective gear and equipment.Flood(none)
Updated2020-01-23 20:15 (53 minutes ago)High - The river is high and potentially dangerous, especially for the young and / or inexperienced. Normal stream obstacles are sometimes difficult to navigate. Extended distances can be attempted, but canoe travel may not be advisable.High(none)
Discharge308 cfs (median: 74 cfs)Good - Conditions are ideal for a canoe or kayak. Boats typically will drag on fewer than one-quarter of riffles, if at all, and portages are unnecessary or rare. Normal float lengths can be attempted without a problem.Good80
Height6.37 feetLow - River is low but can still be floated. Some riffles are okay but most come with significant dragging and might need a portage. Float lengths should be reduced to accommodate low flow, dragging, and portages.Low50
TrendSteady (falling over 24 hours)Poor - River is too low to float comfortably. Most or all riffles will drag or must be portaged and some obstacles (such as slick shelf rock) cause undue problems. Avoid the river at this stage for casual paddling trips.Poor(none)
USGSExternal icon USGS Site for Powell (07188653)LocationExternal icon Google Maps

Trending Data

Plot Image
ObservationHeightDischargeMaximum
Discharge
Minimum
Discharge
Mean
Discharge
P05P10P20P25P50
(Median)
P75P80P90P95
2020-01-23 20:15 6.37 308 257 (2007) 7 (2006) 88 8 10 20 33 74 123 150 229 257
2020-01-23 19:15 6.37 308 257 (2007) 7 (2006) 88 8 10 20 33 74 123 150 229 257
2020-01-23 18:15 6.37 308 257 (2007) 7 (2006) 88 8 10 20 33 74 123 150 229 257
2020-01-23 17:15 6.38 311 257 (2007) 7 (2006) 88 8 10 20 33 74 123 150 229 257
2020-01-23 16:15 6.38 311 257 (2007) 7 (2006) 88 8 10 20 33 74 123 150 229 257
2020-01-23 15:15 6.38 311 257 (2007) 7 (2006) 88 8 10 20 33 74 123 150 229 257
2020-01-23 14:15 6.38 311 257 (2007) 7 (2006) 88 8 10 20 33 74 123 150 229 257
2020-01-23 13:15 6.38 311 257 (2007) 7 (2006) 88 8 10 20 33 74 123 150 229 257
2020-01-23 12:15 6.39 315 257 (2007) 7 (2006) 88 8 10 20 33 74 123 150 229 257
2020-01-23 11:15 6.38 311 257 (2007) 7 (2006) 88 8 10 20 33 74 123 150 229 257
2020-01-23 10:15 6.39 315 257 (2007) 7 (2006) 88 8 10 20 33 74 123 150 229 257
2020-01-23 09:15 6.39 315 257 (2007) 7 (2006) 88 8 10 20 33 74 123 150 229 257
2020-01-23 08:15 6.39 315 257 (2007) 7 (2006) 88 8 10 20 33 74 123 150 229 257
2020-01-23 07:15 6.39 315 257 (2007) 7 (2006) 88 8 10 20 33 74 123 150 229 257
2020-01-23 06:15 6.39 315 257 (2007) 7 (2006) 88 8 10 20 33 74 123 150 229 257
2020-01-23 05:15 6.39 315 257 (2007) 7 (2006) 88 8 10 20 33 74 123 150 229 257
2020-01-23 04:15 6.39 315 257 (2007) 7 (2006) 88 8 10 20 33 74 123 150 229 257
2020-01-23 03:15 6.39 315 257 (2007) 7 (2006) 88 8 10 20 33 74 123 150 229 257
2020-01-23 02:15 6.39 315 257 (2007) 7 (2006) 88 8 10 20 33 74 123 150 229 257
2020-01-23 01:15 6.39 315 257 (2007) 7 (2006) 88 8 10 20 33 74 123 150 229 257
2020-01-23 00:15 6.39 315 257 (2007) 7 (2006) 88 8 10 20 33 74 123 150 229 257
2020-01-22 23:15 6.39 315 285 (2007) 7 (2006) 89 8 10 21 34 74 137 167 208 285
2020-01-22 22:15 6.39 315 285 (2007) 7 (2006) 89 8 10 21 34 74 137 167 208 285
2020-01-22 21:15 6.39 315 285 (2007) 7 (2006) 89 8 10 21 34 74 137 167 208 285
2020-01-22 20:15 6.39 315 285 (2007) 7 (2006) 89 8 10 21 34 74 137 167 208 285
2020-01-22 19:15 6.39 315 285 (2007) 7 (2006) 89 8 10 21 34 74 137 167 208 285
2020-01-22 18:15 6.39 315 285 (2007) 7 (2006) 89 8 10 21 34 74 137 167 208 285
2020-01-22 17:15 6.39 315 285 (2007) 7 (2006) 89 8 10 21 34 74 137 167 208 285
2020-01-22 16:15 6.39 315 285 (2007) 7 (2006) 89 8 10 21 34 74 137 167 208 285
2020-01-22 15:15 6.39 315 285 (2007) 7 (2006) 89 8 10 21 34 74 137 167 208 285
2020-01-22 14:15 6.40 318 285 (2007) 7 (2006) 89 8 10 21 34 74 137 167 208 285
2020-01-22 13:15 6.40 318 285 (2007) 7 (2006) 89 8 10 21 34 74 137 167 208 285
2020-01-22 12:15 6.40 318 285 (2007) 7 (2006) 89 8 10 21 34 74 137 167 208 285
2020-01-22 11:15 6.40 318 285 (2007) 7 (2006) 89 8 10 21 34 74 137 167 208 285
2020-01-22 10:15 6.41 321 285 (2007) 7 (2006) 89 8 10 21 34 74 137 167 208 285
2020-01-22 09:15 6.42 324 285 (2007) 7 (2006) 89 8 10 21 34 74 137 167 208 285
2020-01-22 08:15 6.42 324 285 (2007) 7 (2006) 89 8 10 21 34 74 137 167 208 285
2020-01-22 07:15 6.43 328 285 (2007) 7 (2006) 89 8 10 21 34 74 137 167 208 285
2020-01-22 06:15 6.44 331 285 (2007) 7 (2006) 89 8 10 21 34 74 137 167 208 285
2020-01-22 05:15 6.45 334 285 (2007) 7 (2006) 89 8 10 21 34 74 137 167 208 285
2020-01-22 04:15 6.45 334 285 (2007) 7 (2006) 89 8 10 21 34 74 137 167 208 285
2020-01-22 03:15 6.46 338 285 (2007) 7 (2006) 89 8 10 21 34 74 137 167 208 285
2020-01-22 02:15 6.47 341 285 (2007) 7 (2006) 89 8 10 21 34 74 137 167 208 285
2020-01-22 01:15 6.48 345 285 (2007) 7 (2006) 89 8 10 21 34 74 137 167 208 285
2020-01-22 00:15 6.48 345 285 (2007) 7 (2006) 89 8 10 21 34 74 137 167 208 285
2020-01-21 23:15 6.49 348 240 (2007) 7 (2006) 86 7 10 22 25 69 130 159 240 240
2020-01-21 22:15 6.50 351 240 (2007) 7 (2006) 86 7 10 22 25 69 130 159 240 240
2020-01-21 21:15 6.51 355 240 (2007) 7 (2006) 86 7 10 22 25 69 130 159 240 240
2020-01-21 20:15 6.51 355 240 (2007) 7 (2006) 86 7 10 22 25 69 130 159 240 240
2020-01-21 19:15 6.52 358 240 (2007) 7 (2006) 86 7 10 22 25 69 130 159 240 240
2020-01-21 18:15 6.53 362 240 (2007) 7 (2006) 86 7 10 22 25 69 130 159 240 240
2020-01-21 17:15 6.55 369 240 (2007) 7 (2006) 86 7 10 22 25 69 130 159 240 240
2020-01-21 16:15 6.55 369 240 (2007) 7 (2006) 86 7 10 22 25 69 130 159 240 240
2020-01-21 15:15 6.57 376 240 (2007) 7 (2006) 86 7 10 22 25 69 130 159 240 240
2020-01-21 14:15 6.58 380 240 (2007) 7 (2006) 86 7 10 22 25 69 130 159 240 240
2020-01-21 13:15 6.58 380 240 (2007) 7 (2006) 86 7 10 22 25 69 130 159 240 240
2020-01-21 12:15 6.59 383 240 (2007) 7 (2006) 86 7 10 22 25 69 130 159 240 240
2020-01-21 11:15 6.61 391 240 (2007) 7 (2006) 86 7 10 22 25 69 130 159 240 240
2020-01-21 10:15 6.62 394 240 (2007) 7 (2006) 86 7 10 22 25 69 130 159 240 240
2020-01-21 09:15 6.63 398 240 (2007) 7 (2006) 86 7 10 22 25 69 130 159 240 240
2020-01-21 08:15 6.64 402 240 (2007) 7 (2006) 86 7 10 22 25 69 130 159 240 240
2020-01-21 07:15 6.65 405 240 (2007) 7 (2006) 86 7 10 22 25 69 130 159 240 240
2020-01-21 06:15 6.67 413 240 (2007) 7 (2006) 86 7 10 22 25 69 130 159 240 240
2020-01-21 05:15 6.68 417 240 (2007) 7 (2006) 86 7 10 22 25 69 130 159 240 240
2020-01-21 04:15 6.69 420 240 (2007) 7 (2006) 86 7 10 22 25 69 130 159 240 240
2020-01-21 03:15 6.70 424 240 (2007) 7 (2006) 86 7 10 22 25 69 130 159 240 240
2020-01-21 02:15 6.71 428 240 (2007) 7 (2006) 86 7 10 22 25 69 130 159 240 240
2020-01-21 01:15 6.73 436 240 (2007) 7 (2006) 86 7 10 22 25 69 130 159 240 240
2020-01-21 00:15 6.74 440 240 (2007) 7 (2006) 86 7 10 22 25 69 130 159 240 240
2020-01-20 23:15 6.75 444 292 (2019) 7 (2006) 87 7 11 22 23 56 137 174 202 292
2020-01-20 22:15 6.77 453 292 (2019) 7 (2006) 87 7 11 22 23 56 137 174 202 292
2020-01-20 21:15 6.78 458 292 (2019) 7 (2006) 87 7 11 22 23 56 137 174 202 292
2020-01-20 20:15 6.79 464 292 (2019) 7 (2006) 87 7 11 22 23 56 137 174 202 292
2020-01-20 19:15 6.80 469 292 (2019) 7 (2006) 87 7 11 22 23 56 137 174 202 292
2020-01-20 17:15 6.83 486 292 (2019) 7 (2006) 87 7 11 22 23 56 137 174 202 292
2020-01-20 16:15 6.84 491 292 (2019) 7 (2006) 87 7 11 22 23 56 137 174 202 292
2020-01-20 15:15 6.85 497 292 (2019) 7 (2006) 87 7 11 22 23 56 137 174 202 292
2020-01-20 14:15 6.87 508 292 (2019) 7 (2006) 87 7 11 22 23 56 137 174 202 292
2020-01-20 13:15 6.89 520 292 (2019) 7 (2006) 87 7 11 22 23 56 137 174 202 292
2020-01-20 12:15 6.90 526 292 (2019) 7 (2006) 87 7 11 22 23 56 137 174 202 292
2020-01-20 11:15 6.91 531 292 (2019) 7 (2006) 87 7 11 22 23 56 137 174 202 292
2020-01-20 10:15 6.93 543 292 (2019) 7 (2006) 87 7 11 22 23 56 137 174 202 292
2020-01-20 09:15 6.94 549 292 (2019) 7 (2006) 87 7 11 22 23 56 137 174 202 292
2020-01-20 08:15 6.95 555 292 (2019) 7 (2006) 87 7 11 22 23 56 137 174 202 292
2020-01-20 07:15 6.97 567 292 (2019) 7 (2006) 87 7 11 22 23 56 137 174 202 292
2020-01-20 06:15 6.99 579 292 (2019) 7 (2006) 87 7 11 22 23 56 137 174 202 292
2020-01-20 05:15 7.01 592 292 (2019) 7 (2006) 87 7 11 22 23 56 137 174 202 292
2020-01-20 04:15 7.02 598 292 (2019) 7 (2006) 87 7 11 22 23 56 137 174 202 292
2020-01-20 03:15 7.03 604 292 (2019) 7 (2006) 87 7 11 22 23 56 137 174 202 292
2020-01-20 02:15 7.05 617 292 (2019) 7 (2006) 87 7 11 22 23 56 137 174 202 292
2020-01-20 01:15 7.07 630 292 (2019) 7 (2006) 87 7 11 22 23 56 137 174 202 292
2020-01-20 00:15 7.08 636 292 (2019) 7 (2006) 87 7 11 22 23 56 137 174 202 292
2020-01-19 23:15 7.11 656 247 (2004) 7 (2006) 92 7 10 22 23 57 144 193 241 247
2020-01-19 22:15 7.12 662 247 (2004) 7 (2006) 92 7 10 22 23 57 144 193 241 247
2020-01-19 21:15 7.14 676 247 (2004) 7 (2006) 92 7 10 22 23 57 144 193 241 247
2020-01-19 20:15 7.16 689 247 (2004) 7 (2006) 92 7 10 22 23 57 144 193 241 247
2020-01-19 19:15 7.17 696 247 (2004) 7 (2006) 92 7 10 22 23 57 144 193 241 247
2020-01-19 18:15 7.19 709 247 (2004) 7 (2006) 92 7 10 22 23 57 144 193 241 247
2020-01-19 16:15 7.22 730 247 (2004) 7 (2006) 92 7 10 22 23 57 144 193 241 247
2020-01-19 15:15 7.24 744 247 (2004) 7 (2006) 92 7 10 22 23 57 144 193 241 247
2020-01-19 14:15 7.28 773 247 (2004) 7 (2006) 92 7 10 22 23 57 144 193 241 247
2020-01-19 13:15 7.30 787 247 (2004) 7 (2006) 92 7 10 22 23 57 144 193 241 247
2020-01-19 12:15 7.32 802 247 (2004) 7 (2006) 92 7 10 22 23 57 144 193 241 247
2020-01-19 11:15 7.35 824 247 (2004) 7 (2006) 92 7 10 22 23 57 144 193 241 247
2020-01-19 10:15 7.37 839 247 (2004) 7 (2006) 92 7 10 22 23 57 144 193 241 247
2020-01-19 09:15 7.40 862 247 (2004) 7 (2006) 92 7 10 22 23 57 144 193 241 247
2020-01-19 08:15 7.45 900 247 (2004) 7 (2006) 92 7 10 22 23 57 144 193 241 247
2020-01-19 07:15 7.46 908 247 (2004) 7 (2006) 92 7 10 22 23 57 144 193 241 247
2020-01-19 06:15 7.50 940 247 (2004) 7 (2006) 92 7 10 22 23 57 144 193 241 247
2020-01-19 05:15 7.53 964 247 (2004) 7 (2006) 92 7 10 22 23 57 144 193 241 247
2020-01-19 04:15 7.57 997 247 (2004) 7 (2006) 92 7 10 22 23 57 144 193 241 247
2020-01-19 03:15 7.61 1030 247 (2004) 7 (2006) 92 7 10 22 23 57 144 193 241 247
2020-01-19 02:15 7.65 1060 247 (2004) 7 (2006) 92 7 10 22 23 57 144 193 241 247
2020-01-19 01:15 7.69 1100 247 (2004) 7 (2006) 92 7 10 22 23 57 144 193 241 247
2020-01-19 00:15 7.71 1120 247 (2004) 7 (2006) 92 7 10 22 23 57 144 193 241 247
2020-01-18 23:15 7.77 1170 337 (2004) 7 (2006) 101 7 10 22 23 59 154 167 252 337
2020-01-18 22:15 7.81 1210 337 (2004) 7 (2006) 101 7 10 22 23 59 154 167 252 337
2020-01-18 21:15 7.86 1250 337 (2004) 7 (2006) 101 7 10 22 23 59 154 167 252 337
2020-01-18 20:15 7.92 1310 337 (2004) 7 (2006) 101 7 10 22 23 59 154 167 252 337
2020-01-18 19:15 8.00 1390 337 (2004) 7 (2006) 101 7 10 22 23 59 154 167 252 337
2020-01-18 17:15 8.15 1540 337 (2004) 7 (2006) 101 7 10 22 23 59 154 167 252 337
2020-01-18 16:15 8.22 1620 337 (2004) 7 (2006) 101 7 10 22 23 59 154 167 252 337
2020-01-18 15:15 8.31 1720 337 (2004) 7 (2006) 101 7 10 22 23 59 154 167 252 337
2020-01-18 14:15 8.41 1830 337 (2004) 7 (2006) 101 7 10 22 23 59 154 167 252 337
2020-01-18 13:15 8.51 1940 337 (2004) 7 (2006) 101 7 10 22 23 59 154 167 252 337
2020-01-18 12:15 8.63 2050 337 (2004) 7 (2006) 101 7 10 22 23 59 154 167 252 337
2020-01-18 11:15 8.71 2130 337 (2004) 7 (2006) 101 7 10 22 23 59 154 167 252 337
2020-01-18 09:15 8.74 2150 337 (2004) 7 (2006) 101 7 10 22 23 59 154 167 252 337
2020-01-18 08:15 8.72 2140 337 (2004) 7 (2006) 101 7 10 22 23 59 154 167 252 337
2020-01-18 07:15 8.65 2070 337 (2004) 7 (2006) 101 7 10 22 23 59 154 167 252 337
2020-01-18 06:15 8.55 1980 337 (2004) 7 (2006) 101 7 10 22 23 59 154 167 252 337
2020-01-18 05:15 8.46 1890 337 (2004) 7 (2006) 101 7 10 22 23 59 154 167 252 337
2020-01-18 04:15 8.36 1770 337 (2004) 7 (2006) 101 7 10 22 23 59 154 167 252 337
2020-01-18 03:15 8.28 1680 337 (2004) 7 (2006) 101 7 10 22 23 59 154 167 252 337
2020-01-18 02:15 8.07 1460 337 (2004) 7 (2006) 101 7 10 22 23 59 154 167 252 337
2020-01-18 01:15 7.75 1150 337 (2004) 7 (2006) 101 7 10 22 23 59 154 167 252 337
2020-01-18 00:15 7.49 932 337 (2004) 7 (2006) 101 7 10 22 23 59 154 167 252 337
2020-01-17 23:15 7.27 765 297 (2005) 7 (2006) 111 7 10 22 24 63 184 242 296 297
2020-01-17 22:15 7.08 636 297 (2005) 7 (2006) 111 7 10 22 24 63 184 242 296 297
2020-01-17 21:15 6.96 561 297 (2005) 7 (2006) 111 7 10 22 24 63 184 242 296 297
2020-01-17 20:15 6.89 520 297 (2005) 7 (2006) 111 7 10 22 24 63 184 242 296 297
2020-01-17 19:15 6.85 497 297 (2005) 7 (2006) 111 7 10 22 24 63 184 242 296 297
2020-01-17 18:15 6.81 475 297 (2005) 7 (2006) 111 7 10 22 24 63 184 242 296 297
2020-01-17 17:15 6.74 440 297 (2005) 7 (2006) 111 7 10 22 24 63 184 242 296 297
2020-01-17 16:15 6.68 417 297 (2005) 7 (2006) 111 7 10 22 24 63 184 242 296 297
2020-01-17 15:15 6.63 398 297 (2005) 7 (2006) 111 7 10 22 24 63 184 242 296 297
2020-01-17 14:15 6.61 391 297 (2005) 7 (2006) 111 7 10 22 24 63 184 242 296 297
2020-01-17 13:15 6.60 387 297 (2005) 7 (2006) 111 7 10 22 24 63 184 242 296 297
2020-01-17 12:15 6.58 380 297 (2005) 7 (2006) 111 7 10 22 24 63 184 242 296 297
2020-01-17 11:15 6.57 376 297 (2005) 7 (2006) 111 7 10 22 24 63 184 242 296 297
2020-01-17 10:15 6.56 372 297 (2005) 7 (2006) 111 7 10 22 24 63 184 242 296 297
2020-01-17 09:15 6.56 372 297 (2005) 7 (2006) 111 7 10 22 24 63 184 242 296 297
2020-01-17 08:15 6.56 372 297 (2005) 7 (2006) 111 7 10 22 24 63 184 242 296 297
2020-01-17 07:15 6.56 372 297 (2005) 7 (2006) 111 7 10 22 24 63 184 242 296 297
2020-01-17 06:15 6.56 372 297 (2005) 7 (2006) 111 7 10 22 24 63 184 242 296 297
2020-01-17 05:15 6.57 376 297 (2005) 7 (2006) 111 7 10 22 24 63 184 242 296 297
2020-01-17 04:15 6.58 380 297 (2005) 7 (2006) 111 7 10 22 24 63 184 242 296 297
2020-01-17 03:15 6.58 380 297 (2005) 7 (2006) 111 7 10 22 24 63 184 242 296 297
2020-01-17 02:15 6.58 380 297 (2005) 7 (2006) 111 7 10 22 24 63 184 242 296 297
2020-01-17 01:15 6.59 383 297 (2005) 7 (2006) 111 7 10 22 24 63 184 242 296 297
2020-01-17 00:15 6.59 383 297 (2005) 7 (2006) 111 7 10 22 24 63 184 242 296 297
2020-01-16 23:15 6.60 387 433 (2007) 7 (2006) 122 7 10 26 26 65 185 207 373 433
2020-01-16 22:15 6.61 391 433 (2007) 7 (2006) 122 7 10 26 26 65 185 207 373 433
2020-01-16 21:15 6.62 394 433 (2007) 7 (2006) 122 7 10 26 26 65 185 207 373 433
2020-01-16 20:15 6.63 398 433 (2007) 7 (2006) 122 7 10 26 26 65 185 207 373 433
2020-01-16 19:15 6.64 402 433 (2007) 7 (2006) 122 7 10 26 26 65 185 207 373 433
2020-01-16 18:15 6.65 405 433 (2007) 7 (2006) 122 7 10 26 26 65 185 207 373 433
2020-01-16 17:15 6.66 409 433 (2007) 7 (2006) 122 7 10 26 26 65 185 207 373 433
2020-01-16 16:15 6.66 409 433 (2007) 7 (2006) 122 7 10 26 26 65 185 207 373 433
2020-01-16 15:15 6.67 413 433 (2007) 7 (2006) 122 7 10 26 26 65 185 207 373 433
2020-01-16 14:15 6.69 420 433 (2007) 7 (2006) 122 7 10 26 26 65 185 207 373 433
2020-01-16 13:15 6.69 420 433 (2007) 7 (2006) 122 7 10 26 26 65 185 207 373 433
2020-01-16 12:15 6.70 424 433 (2007) 7 (2006) 122 7 10 26 26 65 185 207 373 433
2020-01-16 11:15 6.71 428 433 (2007) 7 (2006) 122 7 10 26 26 65 185 207 373 433
2020-01-16 10:15 6.72 432 433 (2007) 7 (2006) 122 7 10 26 26 65 185 207 373 433
2020-01-16 09:15 6.73 436 433 (2007) 7 (2006) 122 7 10 26 26 65 185 207 373 433
2020-01-16 08:15 6.74 440 433 (2007) 7 (2006) 122 7 10 26 26 65 185 207 373 433
2020-01-16 07:15 6.75 444 433 (2007) 7 (2006) 122 7 10 26 26 65 185 207 373 433
2020-01-16 06:15 6.76 448 433 (2007) 7 (2006) 122 7 10 26 26 65 185 207 373 433
2020-01-16 05:15 6.77 453 433 (2007) 7 (2006) 122 7 10 26 26 65 185 207 373 433
2020-01-16 04:15 6.77 453 433 (2007) 7 (2006) 122 7 10 26 26 65 185 207 373 433
2020-01-16 03:15 6.78 458 433 (2007) 7 (2006) 122 7 10 26 26 65 185 207 373 433
2020-01-16 02:15 6.79 464 433 (2007) 7 (2006) 122 7 10 26 26 65 185 207 373 433
2020-01-16 00:15 6.81 475 433 (2007) 7 (2006) 122 7 10 26 26 65 185 207 373 433

A total of 184 rows are displayed for years 2001 through 2019.

Trips for Big Sugar Creek (Missouri), Powell (07188653)

DateStartEndDistanceConditionDischargeHeightFishingDetails
Click for details2005-05-29 Cyclone Big Elk Camp Total trip distance: 9.9 miles9.9 Good 130 None NoneNone Edmond, Alex
Edmond, Brian
Edmond, Joseph
Edmond, Alex; Edmond, Brian; Edmond, Joseph
No notes for this trip<i>No notes for this trip</i> USGS Gauge Data:
Powell (07188653)
Discharge: 130
Height:
<b>USGS Gauge Data:</b></br />Powell (07188653)<br />Discharge: 130<br />Height:
Source: EdmondSource: Edmond
Click for details2016-10-15 Powell Cyclone (B) Total trip distance: 14.6 miles9.6 Good 81 5.10 Fair LMB
LSF
RB
SMB
LMB, LSF, RB, SMB
Van Someren, TomVan Someren, Tom The water level rating should actually be right between low and good. There was still enough water to navigate, but I had to push through several low water gravel bar-ish areas. Got bit by a spider on my right side under my arm.The water level rating should actually be right between low and good. There was still enough water to navigate, but I had to push through several low water gravel bar-ish areas. Got bit by a spider on my right side under my arm. USGS Gauge Data:
Powell (07188653)
Discharge: 81
Height: 5.10
<b>USGS Gauge Data:</b></br />Powell (07188653)<br />Discharge: 81<br />Height: 5.10
Source: Van SomerenSource: Van Someren
Click for details2016-10-16 Cyclone (B) Deep Ford Total trip distance: 14.6 miles5.0 Good 66 4.99 Fair LMB
LSF
RB
SMB
LMB, LSF, RB, SMB
Van Someren, TomVan Someren, Tom The water level rating should actually be right between low and good. There was still enough water to navigate, but I had to push through several low water gravel bar-ish areas. Got bit by a spider on my right side under my arm.The water level rating should actually be right between low and good. There was still enough water to navigate, but I had to push through several low water gravel bar-ish areas. Got bit by a spider on my right side under my arm. USGS Gauge Data:
Powell (07188653)
Discharge: 66
Height: 4.99
<b>USGS Gauge Data:</b></br />Powell (07188653)<br />Discharge: 66<br />Height: 4.99
Source: Van SomerenSource: Van Someren
Click for details2014-11-10 Deep Ford Elk River Total trip distance: 4.1 miles4.1 Good 48 4.28 Fair SMBSMB Fillmore, Brian
Fillmore, Rebecca
Javorsek, Rachie
Fillmore, Brian; Fillmore, Rebecca; Javorsek, Rachie
No notes for this trip<i>No notes for this trip</i> USGS Gauge Data:
Powell (07188653)
Discharge: 48
Height: 4.28
<b>USGS Gauge Data:</b></br />Powell (07188653)<br />Discharge: 48<br />Height: 4.28
Source: FillmoreSource: Fillmore
Click for details2013-06-27 Mac's Big Rock Sugar Island Total trip distance: 4.0 miles4.0 Low 39 3.90 Fair SMB
KSB
LSF
SMB, KSB, LSF
Fillmore, Allie
Fillmore, Brian
Fillmore, Jenny
Fillmore, Keith
Fillmore, Rebecca
Fillmore, Allie; Fillmore, Brian; Fillmore, Jenny; Fillmore, Keith; Fillmore, Rebecca
No notes for this trip<i>No notes for this trip</i> USGS Gauge Data:
Powell (07188653)
Discharge: 39
Height: 3.90
<b>USGS Gauge Data:</b></br />Powell (07188653)<br />Discharge: 39<br />Height: 3.90
Source: FillmoreSource: Fillmore

A total of 5 rows are displayed.

Trip Summary for Big Sugar Creek (Missouri), Powell (07188653)

Miles32.6
Trips4
People10
Dates5
Years4
Months4
Rows5
Sources3

Condition Descriptions

Fishing Conditions

Fish Species

Notes

Classic Trip List

The classic River Trips application is still available for use. It is updated with the new system using a data retrofit. It is no longer maintained. The original River Trips application is no longer updated (as of 1 Dec 2016) but can be checked for errors or for the condition of the data before it was converted to the new system.